Time;durP1;ratioP1;P1;durP2;ratioP2;P2;SDS_P1;SDS_P2;PMS_P1;PMS_P2;Temp;Humidity;BMP_temperature;BMP_pressure;BME280_temperature;BME280_humidity;BME280_pressure;Samples;Min_cycle;Max_cycle;Signal;HPM_P1;HPM_P2
2022/09/08 00:00:02;;;;;;;15.20;9.60;;;;;;;13.83;61.24;98485.85;433228;1270;98046;-41
2022/09/08 00:10:31;;;;;;;14.90;9.90;;;;;;;13.55;61.84;98484.22;433246;1270;110513;-41
2022/09/08 00:20:38;;;;;;;17.50;9.40;;;;;;;13.30;62.34;98485.44;433203;1270;99244;-41
2022/09/08 00:30:45;;;;;;;12.10;7.70;;;;;;;13.29;62.63;98482.13;433099;1270;112467;-41
2022/09/08 00:40:53;;;;;;;14.80;8.80;;;;;;;13.26;63.38;98477.80;432368;1270;109036;-41
2022/09/08 00:51:00;;;;;;;22.20;9.70;;;;;;;13.26;63.66;98469.27;432403;1270;98035;-42
2022/09/08 01:01:08;;;;;;;15.40;9.00;;;;;;;13.14;63.54;98461.29;432966;1270;108785;-40
2022/09/08 01:21:43;;;;;;;14.80;8.70;;;;;;;13.04;63.51;98440.38;433920;1261;112611;-40
2022/09/08 01:31:54;;;;;;;16.60;8.10;;;;;;;13.14;63.18;98431.19;432811;1271;109005;-41
2022/09/08 01:42:01;;;;;;;18.30;8.90;;;;;;;13.39;63.04;98433.52;433385;1269;99257;-41
2022/09/08 01:52:09;;;;;;;15.80;8.80;;;;;;;13.52;62.75;98425.23;433237;1271;109188;-40
2022/09/08 02:02:16;;;;;;;22.70;9.30;;;;;;;13.44;62.35;98430.57;433168;1271;99245;-40
2022/09/08 02:12:24;;;;;;;17.50;8.20;;;;;;;13.31;62.54;98429.31;432279;1270;112057;-41
2022/09/08 02:22:32;;;;;;;15.90;8.20;;;;;;;13.27;62.47;98422.52;432250;1271;108806;-41
2022/09/08 02:32:39;;;;;;;16.00;8.30;;;;;;;13.12;62.38;98405.16;432169;1270;99238;-41
2022/09/08 02:42:48;;;;;;;13.50;7.80;;;;;;;13.13;62.44;98398.48;432302;1270;108961;-41
2022/09/08 02:52:55;;;;;;;17.10;8.60;;;;;;;13.25;62.54;98399.47;432573;1269;99813;-41
2022/09/08 03:03:02;;;;;;;15.70;8.30;;;;;;;13.18;62.51;98398.48;432236;1271;112890;-41
2022/09/08 03:13:11;;;;;;;14.70;8.20;;;;;;;13.06;62.59;98385.98;432606;1270;109714;-41
2022/09/08 03:23:21;;;;;;;15.10;8.50;;;;;;;13.01;62.85;98376.95;432634;1271;98036;-41
2022/09/08 03:43:35;;;;;;;14.10;7.20;;;;;;;12.73;62.78;98377.52;432806;1271;99231;-41
2022/09/08 03:53:43;;;;;;;16.60;9.00;;;;;;;12.60;63.08;98383.39;432924;1269;111431;-42
2022/09/08 04:03:50;;;;;;;14.40;8.80;;;;;;;12.43;63.49;98380.38;432740;1269;108882;-43
2022/09/08 04:13:57;;;;;;;20.70;8.60;;;;;;;12.48;63.66;98376.02;432719;1270;97988;-42
2022/09/08 04:24:04;;;;;;;14.30;8.20;;;;;;;12.53;63.57;98370.94;432934;1270;108913;-42
2022/09/08 04:34:13;;;;;;;14.50;7.40;;;;;;;12.62;63.60;98374.29;432941;1270;99204;-42
2022/09/08 04:44:21;;;;;;;13.60;8.30;;;;;;;12.70;63.49;98371.55;432722;1270;112411;-42
2022/09/08 04:54:28;;;;;;;19.60;8.70;;;;;;;12.92;63.39;98369.22;432277;1270;108821;-41
2022/09/08 05:04:37;;;;;;;10.10;6.60;;;;;;;13.20;63.24;98375.61;432877;1270;99344;-41
2022/09/08 05:14:45;;;;;;;17.30;9.10;;;;;;;13.40;63.29;98365.39;432290;1270;109302;-41
2022/09/08 05:34:59;;;;;;;13.50;8.00;;;;;;;14.52;62.63;98367.87;432853;1270;112642;-40
2022/09/08 05:45:08;;;;;;;16.70;8.60;;;;;;;15.17;61.81;98379.89;432786;1270;108819;-41
2022/09/08 05:55:17;;;;;;;20.00;8.30;;;;;;;15.97;61.41;98372.31;432911;1271;99274;-42
2022/09/08 06:05:25;;;;;;;19.70;10.30;;;;;;;17.04;60.61;98377.73;432762;1269;111398;-41
2022/09/08 06:15:32;;;;;;;17.10;10.20;;;;;;;17.58;59.65;98376.97;431580;1270;1506073;-44
2022/09/08 06:25:41;;;;;;;25.80;13.10;;;;;;;17.90;58.96;98367.52;432832;1270;98834;-41
2022/09/08 06:35:47;;;;;;;24.50;11.10;;;;;;;18.52;57.92;98369.98;432896;1269;108890;-41
2022/09/08 06:45:57;;;;;;;18.90;9.60;;;;;;;19.21;57.18;98375.91;432921;1270;98847;-41
2022/09/08 06:56:03;;;;;;;20.50;10.60;;;;;;;19.38;56.37;98360.23;433050;1270;112309;-41
2022/09/08 07:06:34;;;;;;;16.50;10.10;;;;;;;20.27;55.96;98352.95;433258;1269;108878;-43
2022/09/08 07:16:39;;;;;;;19.10;11.70;;;;;;;20.48;55.15;98348.52;433016;1269;99281;-41
2022/09/08 07:26:52;;;;;;;18.20;10.90;;;;;;;20.55;55.13;98334.84;433205;1270;108839;-41
2022/09/08 07:37:07;;;;;;;15.20;10.40;;;;;;;20.52;54.64;98334.78;433107;1270;98841;-42
2022/09/08 07:47:36;;;;;;;15.70;10.00;;;;;;;20.72;55.14;98322.63;433142;1269;112514;-40
2022/09/08 07:57:42;;;;;;;19.60;9.70;;;;;;;21.29;54.77;98320.40;433158;1270;108580;-39
2022/09/08 08:07:48;;;;;;;14.00;9.70;;;;;;;21.58;54.50;98315.95;433096;1269;98868;-39
2022/09/08 08:18:05;;;;;;;16.40;10.00;;;;;;;21.93;54.06;98319.06;433282;1270;109581;-39
2022/09/08 08:28:10;;;;;;;17.00;8.70;;;;;;;22.05;53.85;98314.86;433310;1270;97995;-39
2022/09/08 08:38:21;;;;;;;14.90;9.50;;;;;;;22.45;53.52;98300.58;433186;1270;113039;-40
2022/09/08 08:48:33;;;;;;;17.50;8.00;;;;;;;22.74;52.97;98297.75;433501;1270;108457;-39
2022/09/08 08:58:51;;;;;;;10.60;7.80;;;;;;;22.82;52.58;98290.54;433131;1270;99277;-40
2022/09/08 09:09:24;;;;;;;9.20;8.20;;;;;;;23.03;52.45;98280.32;432431;1270;108790;-40
2022/09/08 09:20:00;;;;;;;15.30;8.80;;;;;;;23.28;52.13;98281.55;432635;1270;98573;-41
2022/09/08 09:30:12;;;;;;;12.00;8.20;;;;;;;23.31;51.74;98283.15;433549;1269;113142;-40
2022/09/08 09:40:33;;;;;;;10.90;8.40;;;;;;;23.37;51.35;98279.17;433319;1269;108845;-40
2022/09/08 09:50:54;;;;;;;8.80;7.90;;;;;;;23.34;51.35;98274.96;433310;1270;99516;-40
2022/09/08 10:01:23;;;;;;;15.30;8.30;;;;;;;23.57;51.18;98266.68;432812;1269;108821;-42
2022/09/08 10:11:35;;;;;;;10.50;7.60;;;;;;;23.78;50.95;98246.92;433316;1270;99340;-41
2022/09/08 10:22:06;;;;;;;13.50;8.70;;;;;;;24.09;51.02;98240.96;433592;1270;112377;-42
2022/09/08 10:32:52;;;;;;;11.30;7.70;;;;;;;24.57;50.82;98243.42;433273;1270;108963;-40
2022/09/08 10:43:05;;;;;;;11.80;7.70;;;;;;;24.77;50.12;98242.66;432155;1270;99387;-43
2022/09/08 10:53:37;;;;;;;11.80;7.60;;;;;;;24.88;49.80;98231.41;432950;1269;107554;-41
2022/09/08 11:14:17;;;;;;;13.10;8.50;;;;;;;25.12;49.73;98211.86;433251;1269;112534;-41
2022/09/08 11:24:21;;;;;;;11.40;8.50;;;;;;;25.24;49.43;98209.36;432853;1270;107743;-41
2022/09/08 11:55:07;;;;;;;10.00;7.30;;;;;;;25.34;49.29;98182.74;433425;1270;99234;-39
2022/09/08 12:05:23;;;;;;;11.30;9.20;;;;;;;25.47;49.77;98182.98;432494;1270;112462;-39
2022/09/08 12:15:57;;;;;;;14.10;11.20;;;;;;;25.13;49.69;98172.05;433268;1268;108317;-39
2022/09/08 12:26:24;;;;;;;11.50;9.10;;;;;;;24.95;50.17;98161.45;433637;1270;98889;-39
2022/09/08 12:36:34;;;;;;;10.60;8.50;;;;;;;25.05;50.48;98156.34;433163;1270;108985;-39
2022/09/08 12:57:15;;;;;;;16.50;9.70;;;;;;;24.74;50.79;98134.92;433275;1270;112466;-42
2022/09/08 13:07:30;;;;;;;13.20;9.90;;;;;;;24.49;51.27;98128.53;432814;1270;108804;-41
2022/09/08 13:17:44;;;;;;;10.20;8.80;;;;;;;24.53;51.22;98111.67;433653;1269;99804;-41
2022/09/08 13:27:58;;;;;;;11.40;9.30;;;;;;;25.03;51.21;98091.74;433128;1270;109083;-41
2022/09/08 13:38:14;;;;;;;14.10;9.50;;;;;;;25.18;51.01;98077.23;433235;1269;99215;-41
2022/09/08 13:48:36;;;;;;;10.30;8.70;;;;;;;24.98;51.19;98064.23;433258;1268;111318;-41
2022/09/08 13:58:43;;;;;;;12.10;9.10;;;;;;;24.80;51.38;98052.56;433191;1270;107800;-41
2022/09/08 14:08:49;;;;;;;15.00;9.90;;;;;;;25.05;51.68;98044.19;433155;1270;98010;-40
2022/09/08 14:19:11;;;;;;;15.20;10.80;;;;;;;25.31;51.11;98034.51;433501;1270;108840;-43
2022/09/08 14:39:33;;;;;;;14.60;10.40;;;;;;;25.17;50.79;98013.34;433580;1269;112880;-42
2022/09/08 14:50:13;;;;;;;13.20;10.20;;;;;;;25.03;50.69;97997.23;433077;1270;109467;-41
2022/09/08 15:00:26;;;;;;;16.00;11.60;;;;;;;24.77;50.97;97980.02;433228;1269;98959;-41
2022/09/08 15:20:38;;;;;;;14.00;12.50;;;;;;;24.27;51.77;97970.81;433315;1269;109609;-41
2022/09/08 15:30:48;;;;;;;14.90;12.20;;;;;;;23.97;52.31;97979.48;433286;1270;98036;-41
2022/09/08 15:41:23;;;;;;;17.40;12.50;;;;;;;23.70;53.07;97989.34;432525;1270;108854;-41
2022/09/08 15:51:43;;;;;;;15.70;12.30;;;;;;;23.43;53.53;98001.11;430638;1276;99791;-41
2022/09/08 16:01:56;;;;;;;22.80;15.80;;;;;;;23.09;54.32;98015.77;431205;1276;112593;-40
2022/09/08 16:22:30;;;;;;;17.80;14.20;;;;;;;21.56;58.00;97961.39;432005;1270;98088;-43
2022/09/08 16:32:48;;;;;;;18.20;14.30;;;;;;;21.07;60.09;98002.59;432482;1270;108747;-41
2022/09/08 16:42:55;;;;;;;24.70;17.50;;;;;;;20.75;61.34;98040.15;433022;1270;98318;-42
2022/09/08 17:03:14;;;;;;;30.80;21.90;;;;;;;20.66;63.52;98123.61;432859;1270;108946;-42
2022/09/08 17:23:26;;;;;;;31.10;24.10;;;;;;;19.96;66.14;98105.39;432950;1270;107856;-42
2022/09/08 17:53:54;;;;;;;12.00;8.00;;;;;;;18.69;72.15;98097.84;432898;1270;108910;-42
2022/09/08 18:04:07;;;;;;;8.70;5.90;;;;;;;18.24;73.15;98071.39;432846;1268;99778;-42
2022/09/08 18:14:20;;;;;;;8.00;4.50;;;;;;;18.12;72.74;98091.81;432075;1270;1900219;-41
2022/09/08 18:24:29;;;;;;;7.60;6.20;;;;;;;17.77;72.96;98077.77;433104;1271;99955;-40
2022/09/08 18:44:55;;;;;;;6.90;6.20;;;;;;;17.60;72.95;98066.89;433490;1270;107836;-41
2022/09/08 18:55:22;;;;;;;12.90;5.60;;;;;;;17.60;73.41;98061.96;433274;1270;98778;-40
2022/09/08 19:05:31;;;;;;;6.20;5.20;;;;;;;17.59;73.83;98075.77;433239;1270;109131;-41
2022/09/08 19:15:48;;;;;;;15.50;8.40;;;;;;;17.59;74.17;98084.87;432714;1269;98057;-41
2022/09/08 19:25:58;;;;;;;8.80;6.30;;;;;;;17.56;74.34;98079.13;432687;1269;113239;-41
2022/09/08 19:36:15;;;;;;;8.40;5.40;;;;;;;17.42;74.65;98082.36;433042;1269;107854;-41
2022/09/08 19:46:38;;;;;;;12.10;7.10;;;;;;;17.33;75.15;98094.24;433292;1269;99251;-40
2022/09/08 19:56:49;;;;;;;8.70;4.50;;;;;;;17.50;75.22;98120.89;433459;1270;108910;-40
2022/09/08 20:07:16;;;;;;;6.10;4.30;;;;;;;17.49;74.98;98133.20;433319;1269;99027;-40
2022/09/08 20:17:22;;;;;;;6.80;5.10;;;;;;;17.54;75.05;98113.91;432619;1270;111479;-40
2022/09/08 20:28:00;;;;;;;7.70;5.70;;;;;;;17.23;75.08;98096.76;433463;1269;109012;-41
2022/09/08 20:48:51;;;;;;;6.20;5.60;;;;;;;17.11;75.79;98098.23;433283;1269;108798;-40
2022/09/08 20:58:58;;;;;;;5.80;4.80;;;;;;;17.06;76.06;98116.36;433706;1271;98049;-39
2022/09/08 21:09:10;;;;;;;6.40;5.70;;;;;;;17.30;76.47;98137.49;433297;1271;112531;-39
2022/09/08 21:29:36;;;;;;;7.10;6.20;;;;;;;17.30;76.36;98144.94;433357;1270;99072;-39
2022/09/08 21:49:49;;;;;;;;;;;;;;;17.12;76.85;98127.77;432832;1271;99286;-39
2022/09/08 22:00:14;;;;;;;11.70;9.70;;;;;;;17.27;77.58;98136.90;432886;1270;112494;-39
2022/09/08 22:10:25;;;;;;;12.20;8.30;;;;;;;17.40;77.54;98150.68;432640;1271;108808;-40
2022/09/08 22:20:30;;;;;;;14.80;12.00;;;;;;;17.58;77.59;98156.56;432826;1269;99254;-40
2022/09/08 22:30:36;;;;;;;12.60;9.90;;;;;;;17.68;77.75;98161.17;432644;1269;107734;-40
2022/09/08 22:51:04;;;;;;;13.50;11.60;;;;;;;17.78;78.26;98163.14;433035;1271;112386;-40
2022/09/08 23:01:13;;;;;;;10.50;8.50;;;;;;;17.75;78.24;98176.38;432729;1271;108769;-41
2022/09/08 23:11:31;;;;;;;5.80;5.30;;;;;;;17.69;78.62;98181.95;432820;1269;99280;-40
2022/09/08 23:21:44;;;;;;;4.60;4.20;;;;;;;17.60;78.77;98189.80;432630;1269;107730;-40
2022/09/08 23:31:54;;;;;;;5.20;4.20;;;;;;;17.49;79.06;98199.17;432890;1269;99232;-40
2022/09/08 23:41:59;;;;;;;;;;;;;;;17.32;79.03;98202.63;432757;1270;111527;-41
2022/09/08 23:52:04;;;;;;;5.40;2.60;;;;;;;17.07;79.16;98210.63;432510;1269;108918;-39
